AUTO METAR SSNG 182320Z 13003KT OVC005 12/11 Q1027